EW7343 Weather Reports


time (UTC)temp
F
wind
direction
speed
knots
gust
knots
rain 1hr
in
rain 24hr
in
rain mn
in
humidity
%
barometer
mb
20260505171502 81 169 3.5 7.8 0.00 0.00 0.00 39 1004.9
20260505171002 81 208 2.6 7.8 0.00 0.00 0.00 39 1005.0
20260505170501 82 224 3.5 8.7 0.00 0.00 0.00 37 1005.1
20260505170226 81 304 2.6 8.7 0.00 0.00 0.00 37 1005.2
20260505165502 81 222 2.6 6.1 0.00 0.00 0.00 39 1005.3
20260505165220 80 247 2.6 9.6 0.00 0.00 0.00 39 1005.3
20260505164726 80 180 2.6 9.6 0.00 0.00 0.00 40 1005.5
20260505164001 79 321 3.5 12.2 0.00 0.00 0.00 40 1005.6
20260505163502 79 147 3.5 12.2 0.00 0.00 0.00 41 1005.7
20260505163002 78 299 3.5 10.4 0.00 0.00 0.00 41 1005.9
20260505162502 78 123 3.5 7.8 0.00 0.00 0.00 43 1006.0
20260505162002 78 244 3.5 7.8 0.00 0.00 0.00 42 1006.2
20260505161502 78 200 3.5 11.3 0.00 0.00 0.00 42 1006.2
20260505161003 77 160 4.3 11.3 0.00 0.00 0.00 42 1006.3
20260505160502 77 298 3.5 11.3 0.00 0.00 0.00 41 1006.3
20260505153002 75 171 2.6 7.0 0.00 0.00 0.00 45 1006.8
20260505152502 74 188 2.6 6.1 0.00 0.00 0.00 46 1006.9
20260505152240 74 207 3.5 9.6 0.00 0.00 0.00 46 1007.0
20260505151727 73 357 3.5 9.6 0.00 0.00 0.00 47 1007.0
20260505151219 73 177 2.6 8.7 0.00 0.00 0.00 47 1007.0
20260505150516 72 275 2.6 7.0 0.00 0.00 0.00 49 1007.1
20260505140503 67 189 2.6 9.6 0.00 0.00 0.00 55 1007.4
20260505140221 67 193 3.5 9.6 0.00 0.00 0.00 56 1007.4
20260505125003 64 344 1.7 6.1 0.00 0.00 0.00 60 1007.7
20260505124503 63 315 1.7 4.3 0.00 0.00 0.00 60 1007.7
20260505124002 62 213 1.7 6.1 0.00 0.00 0.00 61 1007.7
20260505123501 62 322 1.7 6.1 0.00 0.00 0.00 61 1007.8
20260505123001 62 211 0.9 4.3 0.00 0.00 0.00 63 1007.8
20260505122515 61 0 0.9 5.2 0.00 0.00 0.00 64 1007.8
20260505122015 61 0 1.7 5.2 0.00 0.00 0.00 64 1007.8
20260505121728 61 241 1.7 4.3 0.00 0.00 0.00 64 1007.8
20260505121002 61 266 0.9 4.3 0.00 0.00 0.00 64 1007.7
20260505120501 61 0 0.9 3.5 0.00 0.00 0.00 64 1007.7
20260505120003 60 190 1.7 4.3 0.00 0.00 0.00 65 1007.6
20260505115502 60 259 1.7 4.3 0.00 0.00 0.00 65 1007.6
20260505115002 59 165 1.7 4.3 0.00 0.00 0.00 67 1007.7
20260505114502 58 0 0.9 4.3 0.00 0.00 0.00 67 1007.7
20260505114001 58 219 0.9 3.5 0.00 0.00 0.00 68 1007.7
20260505113502 58 335 0.9 5.2 0.00 0.00 0.00 69 1007.7
20260505113015 57 0 1.7 5.2 0.00 0.00 0.00 69 1007.8
20260505112501 56 186 0.9 4.3 0.00 0.00 0.00 69 1007.8
20260505112002 56 0 0.0 2.6 0.00 0.00 0.00 71 1007.8
20260505111721 55 0 0.0 1.7 0.00 0.00 0.00 73 1007.8
20260505111001 55 0 0.0 1.7 0.00 0.00 0.00 73 1007.8
20260505110514 54 0 0.0 1.7 0.00 0.00 0.00 74 1007.9
20260505102002 49 353 0.9 1.7 0.00 0.00 0.00 84 1007.8
20260505101502 49 315 0.9 2.6 0.00 0.00 0.00 83 1007.8
20260505101002 49 313 0.9 2.6 0.00 0.00 0.00 83 1007.8
20260505100502 49 0 0.9 1.7 0.00 0.00 0.00 83 1007.7
20260505100001 49 311 0.9 1.7 0.00 0.00 0.00 83 1007.8
20260505095502 48 0 0.9 1.7 0.00 0.00 0.00 84 1007.8
20260505095002 48 0 0.0 1.7 0.00 0.00 0.00 84 1007.8
20260505094502 48 0 0.0 1.7 0.00 0.00 0.00 84 1007.9
20260505094001 48 0 0.0 1.7 0.00 0.00 0.00 83 1007.9
20260505093501 48 311 0.0 1.7 0.00 0.00 0.00 84 1007.9
20260505093002 48 0 0.0 1.7 0.00 0.00 0.00 84 1007.8
20260505092502 48 0 0.0 1.7 0.00 0.00 0.00 84 1007.8
20260505092015 48 0 0.0 1.7 0.00 0.00 0.00 84 1007.8
20260505091502 48 302 0.0 1.7 0.00 0.00 0.00 84 1007.8
20260505091002 48 0 0.0 0.9 0.00 0.00 0.00 83 1007.8
20260505090503 48 0 0.0 0.9 0.00 0.00 0.00 83 1007.8
20260505090001 48 0 0.0 0.9 0.00 0.00 0.00 83 1007.8
20260505085501 48 0 0.0 0.9 0.00 0.00 0.00 82 1007.7
20260505085001 48 0 0.0 1.7 0.00 0.00 0.00 82 1007.8
20260505084500 48 0 0.0 1.7 0.00 0.00 0.00 82 1007.9
20260505084001 49 0 0.0 0.0 0.00 0.00 0.00 81 1007.9
20260505083501 49 0 0.0 0.0 0.00 0.00 0.00 80 1007.9
20260505083221 49 0 0.0 0.9 0.00 0.00 0.00 79 1008.0
20260505082502 50 0 0.0 0.9 0.00 0.00 0.00 79 1008.0
20260505081959 50 320 0.0 1.7 0.00 0.00 0.00 78 1008.1
20260505081458 50 0 0.0 1.7 0.00 0.00 0.00 78 1008.1
20260505080958 51 0 0.0 0.9 0.00 0.00 0.00 77 1008.0
20260505080717 51 0 0.0 0.9 0.00 0.00 0.00 76 1008.1
20260505075955 51 0 0.0 0.0 0.00 0.00 0.00 75 1008.1
20260505075456 52 0 0.0 0.0 0.00 0.00 0.00 74 1008.1
20260505074956 52 0 0.0 0.9 0.00 0.00 0.00 73 1008.2
20260505074456 53 0 0.0 0.9 0.00 0.00 0.00 72 1008.2
20260505074222 53 0 0.0 0.0 0.00 0.00 0.00 71 1008.1
20260505073456 53 0 0.0 0.0 0.00 0.00 0.00 71 1008.1
20260505072956 54 0 0.0 1.7 0.00 0.00 0.00 70 1008.1
20260505072456 54 0 0.0 1.7 0.00 0.00 0.00 69 1008.1
20260505071957 54 0 0.0 1.7 0.00 0.00 0.00 69 1008.1
20260505071456 55 0 0.0 1.7 0.00 0.00 0.00 68 1008.1
20260505070956 55 0 0.0 1.7 0.00 0.00 0.00 67 1008.1
20260505070456 55 0 0.0 1.7 0.00 0.00 0.00 67 1008.0
20260505065954 55 0 0.9 3.5 0.00 0.00 0.00 67 1008.0
20260505065455 55 285 0.9 3.5 0.00 0.00 0.00 67 1008.0
20260505064954 55 0 0.0 2.6 0.00 0.00 0.00 66 1008.1
20260505064454 55 296 0.0 2.6 0.00 0.00 0.00 66 1008.1
20260505064007 55 0 0.0 1.7 0.00 0.00 0.00 66 1008.1
20260505063455 55 336 0.0 1.7 0.00 0.00 0.00 65 1008.0
20260505062955 55 0 0.0 1.7 0.00 0.00 0.00 65 1008.0
20260505062454 56 0 0.0 1.7 0.00 0.00 0.00 65 1008.0
20260505062007 56 0 0.0 1.7 0.00 0.00 0.00 64 1008.1
20260505061454 56 0 0.0 2.6 0.00 0.00 0.00 63 1008.1
20260505060954 56 0 0.0 2.6 0.00 0.00 0.00 63 1008.1
20260505060505 56 276 0.0 2.6 0.00 0.00 0.00 63 1008.1
20260505055952 56 236 0.9 2.6 0.00 0.00 0.00 63 1008.1
20260505055449 56 233 0.9 2.6 0.00 0.00 0.00 62 1008.2
20260505054948 56 291 0.9 4.3 0.00 0.00 0.00 62 1008.2
20260505054448 56 282 0.9 4.3 0.00 0.00 0.00 61 1008.2
20260505054001 56 0 0.0 2.6 0.00 0.00 0.00 62 1008.2
20260505053449 56 311 0.0 3.5 0.00 0.00 0.00 61 1008.2
20260505052949 57 0 0.9 4.3 0.00 0.00 0.00 61 1008.2
20260505052449 57 262 0.9 4.3 0.00 0.00 0.00 60 1008.2
20260505051949 57 0 0.0 3.5 0.00 0.00 0.00 61 1008.2
20260505051450 57 0 0.0 2.6 0.00 0.00 0.00 60 1008.2
20260505051433 57 0 0.0 1.7 0.00 0.00 0.00 60 1008.2
20260505050450 57 0 0.0 3.5 0.00 0.00 0.00 59 1008.3
20260505041448 59 186 0.9 3.5 0.00 0.00 0.00 54 1008.0
20260505040947 60 136 0.9 3.5 0.00 0.00 0.00 54 1008.0
20260505040444 60 226 0.9 3.5 0.00 0.00 0.00 53 1007.9
20260505035945 60 231 0.9 3.5 0.00 0.00 0.00 53 1007.9
20260505035445 60 221 0.9 3.5 0.00 0.00 0.00 53 1007.8
20260505034945 60 0 0.9 3.5 0.00 0.00 0.00 53 1007.8
20260505034444 60 163 1.7 3.5 0.00 0.00 0.00 52 1007.7
20260505033944 60 229 0.9 3.5 0.00 0.00 0.00 52 1007.7
20260505033445 60 0 0.9 3.5 0.00 0.00 0.00 52 1007.7
20260505032945 61 0 0.9 4.3 0.00 0.00 0.00 52 1007.8
20260505032704 61 159 0.9 4.3 0.00 0.00 0.00 52 1007.7
20260505031945 61 303 1.7 5.2 0.00 0.00 0.00 51 1007.7
20260505031445 61 167 1.7 5.2 0.00 0.00 0.00 50 1007.7
20260505030946 62 275 1.7 4.3 0.00 0.00 0.00 50 1007.7
20260505030446 62 0 1.7 5.2 0.00 0.00 0.00 50 1007.6
20260505025942 62 195 1.7 5.2 0.00 0.00 0.00 50 1007.7
20260505025443 62 234 0.9 4.3 0.00 0.00 0.00 50 1007.7
20260505024940 62 231 0.9 3.5 0.00 0.00 0.00 50 1007.6
20260505024704 62 317 0.9 3.5 0.00 0.00 0.00 50 1007.6
20260505024420 62 309 0.9 5.2 0.00 0.00 0.00 49 1007.6
20260505023440 62 250 0.9 5.2 0.00 0.00 0.00 48 1007.5
20260505022941 63 146 0.9 4.3 0.00 0.00 0.00 48 1007.6
20260505022439 63 0 1.7 6.1 0.00 0.00 0.00 47 1007.6
20260505021939 63 204 1.7 6.1 0.00 0.00 0.00 48 1007.5
20260505021657 63 168 1.7 5.2 0.00 0.00 0.00 48 1007.5
20260505020935 63 316 1.7 7.8 0.00 0.00 0.00 47 1007.4
20260505020434 64 254 2.6 7.8 0.00 0.00 0.00 46 1007.4
20260505020156 64 223 1.7 5.2 0.00 0.00 0.00 46 1007.3
20260505015431 63 289 1.7 7.0 0.00 0.00 0.00 46 1007.3
20260505014932 64 310 1.7 7.0 0.00 0.00 0.00 46 1007.2
20260505014430 64 222 1.7 5.2 0.00 0.00 0.00 45 1007.0
20260505013930 64 218 1.7 5.2 0.00 0.00 0.00 46 1007.0
20260505013430 64 189 1.7 6.1 0.00 0.00 0.00 45 1007.0
20260505012929 64 169 1.7 7.8 0.00 0.00 0.00 44 1006.9
20260505012429 63 219 1.7 7.8 0.00 0.00 0.00 43 1006.8
20260505011931 62 62 1.7 5.2 0.00 0.00 0.00 44 1006.7
20260505011653 61 221 0.9 5.2 0.00 0.00 0.00 45 1006.7
20260505010930 60 230 0.0 1.7 0.00 0.00 0.00 49 1006.6
20260505010430 60 0 0.0 2.6 0.00 0.00 0.00 48 1006.4
20260505010150 60 0 0.0 2.6 0.00 0.00 0.00 48 1006.3
20260505005431 60 0 0.0 0.0 0.00 0.00 0.00 49 1006.2
20260505004931 60 0 0.0 0.0 0.00 0.00 0.00 47 1006.1
20260505004431 61 0 0.0 0.0 0.00 0.00 0.00 47 1006.1
20260505004151 61 0 0.0 0.0 0.00 0.00 0.00 49 1006.0
20260505003430 62 0 0.0 0.0 0.00 0.00 0.00 47 1005.9
20260505002930 62 0 0.0 0.0 0.00 0.00 0.00 46 1005.8
20260505002429 63 0 0.0 0.0 0.00 0.00 0.00 44 1005.7
20260505002412 63 0 0.0 1.7 0.00 0.00 0.00 43 1005.6
20260505001430 64 0 0.0 1.7 0.00 0.00 0.00 42 1005.5
20260505000930 64 0 0.0 1.7 0.00 0.00 0.00 40 1005.4
20260505000430 65 0 0.0 1.7 0.00 0.00 0.00 40 1005.3
20260504235930 66 0 0.0 1.7 0.00 0.00 0.00 39 1005.3
20260504235431 66 0 0.0 0.9 0.00 0.00 0.00 38 1005.2
20260504235408 67 0 0.0 1.7 0.00 0.00 0.00 35 1005.1
20260504234429 67 0 0.0 2.6 0.00 0.00 0.00 36 1005.1
20260504233930 68 0 0.9 2.6 0.00 0.00 0.00 35 1005.1
20260504233914 68 351 0.9 3.5 0.00 0.00 0.00 35 1005.1
20260504232930 68 0 0.9 3.5 0.00 0.00 0.00 34 1005.0
20260504232430 69 216 0.9 3.5 0.00 0.00 0.00 34 1005.0
20260504231930 69 315 0.9 2.6 0.00 0.00 0.00 33 1004.9
20260504231430 69 0 0.9 3.5 0.00 0.00 0.00 32 1004.8
20260504230943 70 0 0.9 3.5 0.00 0.00 0.00 33 1004.7
20260504230430 70 177 0.9 3.5 0.00 0.00 0.00 32 1004.7
20260504225930 70 202 1.7 7.8 0.00 0.00 0.00 31 1004.6
20260504225430 70 229 2.6 7.8 0.00 0.00 0.00 31 1004.5
20260504225148 71 313 1.7 7.8 0.00 0.00 0.00 31 1004.5
20260504224653 71 0 1.7 7.0 0.00 0.00 0.00 31 1004.5
20260504223930 71 315 2.6 11.3 0.00 0.00 0.00 30 1004.4
20260504223911 71 161 2.6 11.3 0.00 0.00 0.00 30 1004.4
20260504222930 71 211 1.7 7.0 0.00 0.00 0.00 30 1004.3
20260504222431 71 190 1.7 7.0 0.00 0.00 0.00 31 1004.3
20260504221930 71 304 1.7 7.8 0.00 0.00 0.00 31 1004.4
20260504221430 71 309 2.6 7.8 0.00 0.00 0.00 30 1004.3
20260504220930 71 234 3.5 13.0 0.00 0.00 0.00 30 1004.3
20260504220429 71 285 2.6 13.0 0.00 0.00 0.00 30 1004.3
20260504220413 72 295 1.7 7.8 0.00 0.00 0.00 30 1004.4
20260504215430 72 65 2.6 7.8 0.00 0.00 0.00 30 1004.4
20260504214930 72 276 2.6 7.8 0.00 0.00 0.00 29 1004.3
20260504214430 72 344 2.6 7.8 0.00 0.00 0.00 30 1004.3
20260504213929 72 207 3.5 9.6 0.00 0.00 0.00 29 1004.2
20260504213429 72 172 2.6 9.6 0.00 0.00 0.00 30 1004.2
20260504213406 71 160 3.5 15.6 0.00 0.00 0.00 30 1004.1
20260504212430 71 201 3.5 15.6 0.00 0.00 0.00 31 1004.2
20260504211930 71 198 2.6 8.7 0.00 0.00 0.00 30 1004.3
20260504211430 71 161 2.6 7.0 0.00 0.00 0.00 31 1004.4
20260504210931 72 154 3.5 7.8 0.00 0.00 0.00 30 1004.3
20260504210430 72 15 3.5 7.8 0.00 0.00 0.00 30 1004.3
20260504205930 72 279 3.5 12.2 0.00 0.00 0.00 30 1004.2
20260504205430 72 51 5.2 13.0 0.00 0.00 0.00 30 1004.2
20260504204931 72 317 4.3 13.0 0.00 0.00 0.00 29 1004.2
20260504204430 72 0 3.5 10.4 0.00 0.00 0.00 30 1004.2
20260504203930 72 325 3.5 9.6 0.00 0.00 0.00 30 1004.3
20260504203430 71 280 3.5 9.6 0.00 0.00 0.00 29 1004.3
20260504203406 71 341 2.6 7.0 0.00 0.00 0.00 31 1004.3
20260504202430 71 53 2.6 12.2 0.00 0.00 0.00 31 1004.3
20260504201930 71 303 3.5 12.2 0.00 0.00 0.00 29 1004.3
20260504201430 71 147 2.6 8.7 0.00 0.00 0.00 30 1004.3
20260504201152 71 317 2.6 7.8 0.00 0.00 0.00 30 1004.3
20260504200429 71 332 2.6 7.0 0.00 0.00 0.00 31 1004.3
20260504195930 71 276 3.5 8.7 0.00 0.00 0.00 31 1004.4
20260504195431 70 221 3.5 8.7 0.00 0.00 0.00 30 1004.4
20260504194929 70 348 2.6 7.0 0.00 0.00 0.00 31 1004.4
20260504194430 70 192 2.6 7.8 0.00 0.00 0.00 31 1004.4
20260504193929 70 321 2.6 7.8 0.00 0.00 0.00 30 1004.4
20260504193431 70 181 2.6 7.8 0.00 0.00 0.00 30 1004.4
20260504193155 71 199 3.5 9.6 0.00 0.00 0.00 29 1004.4
20260504192653 71 310 3.5 11.3 0.00 0.00 0.00 30 1004.5
20260504191929 71 170 3.5 11.3 0.00 0.00 0.00 29 1004.4
20260504191428 71 176 3.5 11.3 0.00 0.00 0.00 29 1004.4
20260504190929 71 334 3.5 11.3 0.00 0.00 0.00 29 1004.5
20260504190429 71 244 3.5 9.6 0.00 0.00 0.00 30 1004.5
20260504185927 71 167 3.5 9.6 0.00 0.00 0.00 29 1004.6
20260504185426 70 260 3.5 7.8 0.00 0.00 0.00 29 1004.6
20260504184927 70 248 3.5 8.7 0.00 0.00 0.00 30 1004.6
20260504184427 70 267 3.5 10.4 0.00 0.00 0.00 30 1004.7
20260504183927 70 290 3.5 10.4 0.00 0.00 0.00 30 1004.7
20260504183426 69 157 3.5 8.7 0.00 0.00 0.00 30 1004.7
20260504183406 69 243 4.3 9.6 0.00 0.00 0.00 30 1004.7
20260504182427 69 293 3.5 9.6 0.00 0.00 0.00 29 1004.6
20260504181927 70 321 2.6 9.6 0.00 0.00 0.00 29 1004.6
20260504181427 70 268 3.5 11.3 0.00 0.00 0.00 30 1004.8
20260504180926 70 211 4.3 11.3 0.00 0.00 0.00 30 1004.8
20260504180426 71 185 3.5 10.4 0.00 0.00 0.00 31 1004.6
20260504175927 71 164 4.3 10.4 0.00 0.00 0.00 30 1004.7
20260504175427 70 336 3.5 8.7 0.00 0.00 0.00 30 1004.8
20260504174927 70 211 3.5 8.7 0.00 0.00 0.00 30 1004.8
20260504174428 70 191 3.5 10.4 0.00 0.00 0.00 31 1004.8
20260504173928 70 161 4.3 12.2 0.00 0.00 0.00 30 1004.8
20260504173427 70 277 4.3 14.8 0.00 0.00 0.00 30 1004.9
20260504172924 69 166 4.3 14.8 0.00 0.00 0.00 32 1004.9
20260504172425 70 342 4.3 13.9 0.00 0.00 0.00 30 1005.0
20260504171925 69 157 4.3 13.9 0.00 0.00 0.00 32 1005.0